Demetrios B — 9HMI9 — position and weather

sailwx.info

Track history (hours):
 
Tides and Currents Weather Stations Pressure Air Temp Water Temp Dewpoint Dewpoint Depression Visibility Wind Speed Wind Dir Waves Ship Positions

Demetrios B

Last reported at 2017-Sep-19 23:11 UTC. Time now 2017-Sep-21 03:40 UTC.
Position N 37°56' E 025°24'.

Length 104 m; draft 7 m.

Type: Ship (hazmat cat B). MMSI: 249180000.

Date/timePositionNaut miles runAvg speedWind from/ knotsBaromVisibWave heightAir tempDewpointWater temp
2017-Sep-19 23:11N 37°56' E 025°24'2 8.9
2017-Sep-19 22:59N 37°55' E 025°23'71 6.9
2017-Sep-19 12:35N 37°37' E 023°55'1 8.6
2017-Sep-19 12:30N 37°37' E 023°55'4 8.7
2017-Sep-19 12:01N 37°37' E 023°49'4 8.2
2017-Sep-19 11:30N 37°37' E 023°44'4 8.8
2017-Sep-19 11:00N 37°41' E 023°42'4 8.9
2017-Sep-19 10:31N 37°45' E 023°40'4 8.9
2017-Sep-19 10:00N 37°49' E 023°37'5 8.8
2017-Sep-19 09:27N 37°54' E 023°37'3 7.3
2017-Sep-19 09:01N 37°57' E 023°35'4 7.3
2017-Sep-19 08:31N 38°00' E 023°33'2 3.6
2017-Sep-19 07:56N 38°02' E 023°32'0 0.0
2017-Sep-19 07:29N 38°02' E 023°32'0 0.0
2017-Sep-19 06:56N 38°02' E 023°32'0 0.0
2017-Sep-19 06:26N 38°02' E 023°32'0 0.0
2017-Sep-19 05:29N 38°02' E 023°32'0 0.0
2017-Sep-19 04:59N 38°02' E 023°32'0 0.0
2017-Sep-19 04:29N 38°02' E 023°32'0 0.0
2017-Sep-19 03:59N 38°02' E 023°32'0 0.0
2017-Sep-19 03:29N 38°02' E 023°32'0 0.0
2017-Sep-19 02:59N 38°02' E 023°32'0 0.0
2017-Sep-19 02:29N 38°02' E 023°32'0 0.0
2017-Sep-19 01:59N 38°02' E 023°32'0 0.0
2017-Sep-19 01:23N 38°02' E 023°32'0 0.0
2017-Sep-19 00:59N 38°02' E 023°32'0 0.0
2017-Sep-19 00:29N 38°02' E 023°32'0 0.0
2017-Sep-18 23:59N 38°02' E 023°32'0 0.0
2017-Sep-18 23:26N 38°02' E 023°32'0 0.0
2017-Sep-18 22:50N 38°02' E 023°32'0 0.0
2017-Sep-18 22:26N 38°02' E 023°32'0 0.0
2017-Sep-18 21:59N 38°02' E 023°32'0 0.0
2017-Sep-18 21:29N 38°02' E 023°32'0 0.0
2017-Sep-18 20:59N 38°02' E 023°32'0 0.0
2017-Sep-18 20:23N 38°02' E 023°32'0 0.0
2017-Sep-18 19:56N 38°02' E 023°32'0 0.0
2017-Sep-18 19:29N 38°02' E 023°32'0 0.0
2017-Sep-18 18:56N 38°02' E 023°32'0 0.0
2017-Sep-18 18:29N 38°02' E 023°32'0 0.0
2017-Sep-18 17:59N 38°02' E 023°32'0 0.0
2017-Sep-18 17:29N 38°02' E 023°32'0 0.0
2017-Sep-18 16:59N 38°02' E 023°32'0 0.0
2017-Sep-18 16:26N 38°02' E 023°32'0 0.0
2017-Sep-18 15:59N 38°02' E 023°32'0 0.0
2017-Sep-18 15:29N 38°02' E 023°32'0 0.0
2017-Sep-18 14:59N 38°02' E 023°32'0 0.0
2017-Sep-18 14:29N 38°02' E 023°32'0 0.0
2017-Sep-18 13:56N 38°02' E 023°32'0 0.0
2017-Sep-18 13:29N 38°02' E 023°32'0 0.0
2017-Sep-18 12:50N 38°02' E 023°32'0 0.0
2017-Sep-18 12:23N 38°02' E 023°32'0 0.0
2017-Sep-18 11:59N 38°02' E 023°32'0 0.0
2017-Sep-18 11:20N 38°02' E 023°32'0 0.0
2017-Sep-18 10:56N 38°02' E 023°32'0 0.0
2017-Sep-18 09:53N 38°02' E 023°32'0 0.0
2017-Sep-18 09:29N 38°02' E 023°32'0 0.0
2017-Sep-18 08:50N 38°02' E 023°32'0 0.0
2017-Sep-18 08:26N 38°02' E 023°32'0 0.0
2017-Sep-18 07:59N 38°02' E 023°32'0 0.0
2017-Sep-18 07:29N 38°02' E 023°32'0 0.0
2017-Sep-18 06:59N 38°02' E 023°32'0 0.0
2017-Sep-18 06:26N 38°02' E 023°32'0 0.0
2017-Sep-18 05:59N 38°02' E 023°32'0 0.0
2017-Sep-18 05:26N 38°02' E 023°32'0 0.0
2017-Sep-18 04:50N 38°02' E 023°32'0 0.0
2017-Sep-18 04:20N 38°02' E 023°32'0 0.0
2017-Sep-18 03:56N 38°02' E 023°32'0 0.0
2017-Sep-18 03:29N 38°02' E 023°32'0 0.0
2017-Sep-18 02:59N 38°02' E 023°32'0 0.0
2017-Sep-18 02:29N 38°02' E 023°32'0 0.0
2017-Sep-18 01:56N 38°02' E 023°32'0 0.0
2017-Sep-18 01:29N 38°02' E 023°32'0 0.0
2017-Sep-18 00:59N 38°02' E 023°32'0 0.0
2017-Sep-18 00:29N 38°02' E 023°32'0 0.0
2017-Sep-17 23:59N 38°02' E 023°32'0 0.0
2017-Sep-17 23:29N 38°02' E 023°32'0 0.0
2017-Sep-17 22:59N 38°02' E 023°32'0 0.0
2017-Sep-17 22:26N 38°02' E 023°32'0 0.0
2017-Sep-17 21:56N 38°02' E 023°32'0 0.0
2017-Sep-17 21:20N 38°02' E 023°32'0 0.0
2017-Sep-17 20:38N 38°02' E 023°32'0 0.0
2017-Sep-17 20:14N 38°02' E 023°32'0 0.0
2017-Sep-17 19:50N 38°02' E 023°32'0 0.0
2017-Sep-17 19:26N 38°02' E 023°32'0 0.0
2017-Sep-17 18:56N 38°02' E 023°32'0 0.0
2017-Sep-17 18:26N 38°02' E 023°32'0 0.0
2017-Sep-17 17:53N 38°02' E 023°32'0 0.0
2017-Sep-17 17:14N 38°02' E 023°32'0 0.0
2017-Sep-17 16:44N 38°02' E 023°32'0 0.0
2017-Sep-17 16:26N 38°02' E 023°32'0 0.0
2017-Sep-17 15:56N 38°02' E 023°32'0 0.0
2017-Sep-17 15:26N 38°02' E 023°32'0 0.0
2017-Sep-17 14:59N 38°02' E 023°32'0 0.0
2017-Sep-17 14:26N 38°02' E 023°32'0 0.0
2017-Sep-17 13:50N 38°02' E 023°32'0 0.0
2017-Sep-17 13:29N 38°02' E 023°32'0 0.0
2017-Sep-17 12:59N 38°02' E 023°32'0 0.0
2017-Sep-17 12:26N 38°02' E 023°32'0 0.0
2017-Sep-17 11:59N 38°02' E 023°32'0 0.0
2017-Sep-17 11:29N 38°02' E 023°32'0 0.0
2017-Sep-17 10:56N 38°02' E 023°32'0 0.0
2017-Sep-17 10:29N 38°02' E 023°32'0 0.0
2017-Sep-17 09:56N 38°02' E 023°32'0 0.0
2017-Sep-17 09:29N 38°02' E 023°32'0 0.0
2017-Sep-17 08:59N 38°02' E 023°32'0 0.0
2017-Sep-17 06:44N 38°02' E 023°32'0 0.0
2017-Sep-17 06:26N 38°02' E 023°32'0 0.0
2017-Sep-17 05:56N 38°02' E 023°32'0 0.0
2017-Sep-17 04:35N 38°02' E 023°32'0 0.0
2017-Sep-16 16:56N 38°02' E 023°32'0 0.0
2017-Sep-16 12:29N 38°02' E 023°32'0 0.0
2017-Sep-16 11:56N 38°02' E 023°32'0 0.0
2017-Sep-16 11:29N 38°02' E 023°32'0 0.0
2017-Sep-16 10:59N 38°02' E 023°32'0 0.0
2017-Sep-16 10:29N 38°02' E 023°32'0 0.0
2017-Sep-16 09:59N 38°02' E 023°32'0 0.0
2017-Sep-16 09:29N 38°02' E 023°32'0 0.0
2017-Sep-16 08:59N 38°02' E 023°32'0 0.0
2017-Sep-16 08:29N 38°02' E 023°32'0 0.0
2017-Sep-16 07:59N 38°02' E 023°32'0 0.0
2017-Sep-16 07:29N 38°02' E 023°32'0 0.0
2017-Sep-16 06:59N 38°02' E 023°32'0 0.0
2017-Sep-16 06:30N 38°02' E 023°32'2 3.9
2017-Sep-16 06:00N 38°01' E 023°33'4 7.7
2017-Sep-16 05:30N 37°57' E 023°35'3 6.0
2017-Sep-16 05:01N 37°55' E 023°37'1 1.9
2017-Sep-16 04:31N 37°54' E 023°37'0 0.7
2017-Sep-16 04:01N 37°54' E 023°37'0 0.1
2017-Sep-16 03:31N 37°54' E 023°37'3 6.0
2017-Sep-16 03:00N 37°51' E 023°39'5 9.5
2017-Sep-16 02:30N 37°47' E 023°41'5 9.7
2017-Sep-16 02:00N 37°43' E 023°44'5 9.7
2017-Sep-16 01:30N 37°38' E 023°46'2310.2
2017-Sep-15 23:15N 37°17' E 023°57'910.6
2017-Sep-15 22:23N 37°07' E 023°58'410.6
2017-Sep-15 22:00N 37°04' E 023°59'510.6
2017-Sep-15 21:30N 36°59' E 024°01'  
Track history (hours):
 
Tides and Currents Weather Stations Pressure Air Temp Water Temp Dewpoint Dewpoint Depression Visibility Wind Speed Wind Dir Waves Ship Positions

Demetrios B

Last reported at 2017-Sep-19 23:11 UTC. Time now 2017-Sep-21 03:40 UTC.
Position N 37°56' E 025°24'.

Length 104 m; draft 7 m.

Type: Ship (hazmat cat B). MMSI: 249180000.

Date/timePositionNaut miles runAvg speedWind from/ knotsBaromVisibWave heightAir tempDewpointWater temp
2017-Sep-19 23:11N 37°56' E 025°24'2 8.9
2017-Sep-19 22:59N 37°55' E 025°23'71 6.9
2017-Sep-19 12:35N 37°37' E 023°55'1 8.6
2017-Sep-19 12:30N 37°37' E 023°55'4 8.7
2017-Sep-19 12:01N 37°37' E 023°49'4 8.2
2017-Sep-19 11:30N 37°37' E 023°44'4 8.8
2017-Sep-19 11:00N 37°41' E 023°42'4 8.9
2017-Sep-19 10:31N 37°45' E 023°40'4 8.9
2017-Sep-19 10:00N 37°49' E 023°37'5 8.8
2017-Sep-19 09:27N 37°54' E 023°37'3 7.3
2017-Sep-19 09:01N 37°57' E 023°35'4 7.3
2017-Sep-19 08:31N 38°00' E 023°33'2 3.6
2017-Sep-19 07:56N 38°02' E 023°32'0 0.0
2017-Sep-19 07:29N 38°02' E 023°32'0 0.0
2017-Sep-19 06:56N 38°02' E 023°32'0 0.0
2017-Sep-19 06:26N 38°02' E 023°32'0 0.0
2017-Sep-19 05:29N 38°02' E 023°32'0 0.0
2017-Sep-19 04:59N 38°02' E 023°32'0 0.0
2017-Sep-19 04:29N 38°02' E 023°32'0 0.0
2017-Sep-19 03:59N 38°02' E 023°32'0 0.0
2017-Sep-19 03:29N 38°02' E 023°32'0 0.0
2017-Sep-19 02:59N 38°02' E 023°32'0 0.0
2017-Sep-19 02:29N 38°02' E 023°32'0 0.0
2017-Sep-19 01:59N 38°02' E 023°32'0 0.0
2017-Sep-19 01:23N 38°02' E 023°32'0 0.0
2017-Sep-19 00:59N 38°02' E 023°32'0 0.0
2017-Sep-19 00:29N 38°02' E 023°32'0 0.0
2017-Sep-18 23:59N 38°02' E 023°32'0 0.0
2017-Sep-18 23:26N 38°02' E 023°32'0 0.0
2017-Sep-18 22:50N 38°02' E 023°32'0 0.0
2017-Sep-18 22:26N 38°02' E 023°32'0 0.0
2017-Sep-18 21:59N 38°02' E 023°32'0 0.0
2017-Sep-18 21:29N 38°02' E 023°32'0 0.0
2017-Sep-18 20:59N 38°02' E 023°32'0 0.0
2017-Sep-18 20:23N 38°02' E 023°32'0 0.0
2017-Sep-18 19:56N 38°02' E 023°32'0 0.0
2017-Sep-18 19:29N 38°02' E 023°32'0 0.0
2017-Sep-18 18:56N 38°02' E 023°32'0 0.0
2017-Sep-18 18:29N 38°02' E 023°32'0 0.0
2017-Sep-18 17:59N 38°02' E 023°32'0 0.0
2017-Sep-18 17:29N 38°02' E 023°32'0 0.0
2017-Sep-18 16:59N 38°02' E 023°32'0 0.0
2017-Sep-18 16:26N 38°02' E 023°32'0 0.0
2017-Sep-18 15:59N 38°02' E 023°32'0 0.0
2017-Sep-18 15:29N 38°02' E 023°32'0 0.0
2017-Sep-18 14:59N 38°02' E 023°32'0 0.0
2017-Sep-18 14:29N 38°02' E 023°32'0 0.0
2017-Sep-18 13:56N 38°02' E 023°32'0 0.0
2017-Sep-18 13:29N 38°02' E 023°32'0 0.0
2017-Sep-18 12:50N 38°02' E 023°32'0 0.0
2017-Sep-18 12:23N 38°02' E 023°32'0 0.0
2017-Sep-18 11:59N 38°02' E 023°32'0 0.0
2017-Sep-18 11:20N 38°02' E 023°32'0 0.0
2017-Sep-18 10:56N 38°02' E 023°32'0 0.0
2017-Sep-18 09:53N 38°02' E 023°32'0 0.0
2017-Sep-18 09:29N 38°02' E 023°32'0 0.0
2017-Sep-18 08:50N 38°02' E 023°32'0 0.0
2017-Sep-18 08:26N 38°02' E 023°32'0 0.0
2017-Sep-18 07:59N 38°02' E 023°32'0 0.0
2017-Sep-18 07:29N 38°02' E 023°32'0 0.0
2017-Sep-18 06:59N 38°02' E 023°32'0 0.0
2017-Sep-18 06:26N 38°02' E 023°32'0 0.0
2017-Sep-18 05:59N 38°02' E 023°32'0 0.0
2017-Sep-18 05:26N 38°02' E 023°32'0 0.0
2017-Sep-18 04:50N 38°02' E 023°32'0 0.0
2017-Sep-18 04:20N 38°02' E 023°32'0 0.0
2017-Sep-18 03:56N 38°02' E 023°32'0 0.0
2017-Sep-18 03:29N 38°02' E 023°32'0 0.0
2017-Sep-18 02:59N 38°02' E 023°32'0 0.0
2017-Sep-18 02:29N 38°02' E 023°32'0 0.0
2017-Sep-18 01:56N 38°02' E 023°32'0 0.0
2017-Sep-18 01:29N 38°02' E 023°32'0 0.0
2017-Sep-18 00:59N 38°02' E 023°32'0 0.0
2017-Sep-18 00:29N 38°02' E 023°32'0 0.0
2017-Sep-17 23:59N 38°02' E 023°32'0 0.0
2017-Sep-17 23:29N 38°02' E 023°32'0 0.0
2017-Sep-17 22:59N 38°02' E 023°32'0 0.0
2017-Sep-17 22:26N 38°02' E 023°32'0 0.0
2017-Sep-17 21:56N 38°02' E 023°32'0 0.0
2017-Sep-17 21:20N 38°02' E 023°32'0 0.0
2017-Sep-17 20:38N 38°02' E 023°32'0 0.0
2017-Sep-17 20:14N 38°02' E 023°32'0 0.0
2017-Sep-17 19:50N 38°02' E 023°32'0 0.0
2017-Sep-17 19:26N 38°02' E 023°32'0 0.0
2017-Sep-17 18:56N 38°02' E 023°32'0 0.0
2017-Sep-17 18:26N 38°02' E 023°32'0 0.0
2017-Sep-17 17:53N 38°02' E 023°32'0 0.0
2017-Sep-17 17:14N 38°02' E 023°32'0 0.0
2017-Sep-17 16:44N 38°02' E 023°32'0 0.0
2017-Sep-17 16:26N 38°02' E 023°32'0 0.0
2017-Sep-17 15:56N 38°02' E 023°32'0 0.0
2017-Sep-17 15:26N 38°02' E 023°32'0 0.0
2017-Sep-17 14:59N 38°02' E 023°32'0 0.0
2017-Sep-17 14:26N 38°02' E 023°32'0 0.0
2017-Sep-17 13:50N 38°02' E 023°32'0 0.0
2017-Sep-17 13:29N 38°02' E 023°32'0 0.0
2017-Sep-17 12:59N 38°02' E 023°32'0 0.0
2017-Sep-17 12:26N 38°02' E 023°32'0 0.0
2017-Sep-17 11:59N 38°02' E 023°32'0 0.0
2017-Sep-17 11:29N 38°02' E 023°32'0 0.0
2017-Sep-17 10:56N 38°02' E 023°32'0 0.0
2017-Sep-17 10:29N 38°02' E 023°32'0 0.0
2017-Sep-17 09:56N 38°02' E 023°32'0 0.0
2017-Sep-17 09:29N 38°02' E 023°32'0 0.0
2017-Sep-17 08:59N 38°02' E 023°32'0 0.0
2017-Sep-17 06:44N 38°02' E 023°32'0 0.0
2017-Sep-17 06:26N 38°02' E 023°32'0 0.0
2017-Sep-17 05:56N 38°02' E 023°32'0 0.0
2017-Sep-17 04:35N 38°02' E 023°32'0 0.0
2017-Sep-16 16:56N 38°02' E 023°32'0 0.0
2017-Sep-16 12:29N 38°02' E 023°32'0 0.0
2017-Sep-16 11:56N 38°02' E 023°32'0 0.0
2017-Sep-16 11:29N 38°02' E 023°32'0 0.0
2017-Sep-16 10:59N 38°02' E 023°32'0 0.0
2017-Sep-16 10:29N 38°02' E 023°32'0 0.0
2017-Sep-16 09:59N 38°02' E 023°32'0 0.0
2017-Sep-16 09:29N 38°02' E 023°32'0 0.0
2017-Sep-16 08:59N 38°02' E 023°32'0 0.0
2017-Sep-16 08:29N 38°02' E 023°32'0 0.0
2017-Sep-16 07:59N 38°02' E 023°32'0 0.0
2017-Sep-16 07:29N 38°02' E 023°32'0 0.0
2017-Sep-16 06:59N 38°02' E 023°32'0 0.0
2017-Sep-16 06:30N 38°02' E 023°32'2 3.9
2017-Sep-16 06:00N 38°01' E 023°33'4 7.7
2017-Sep-16 05:30N 37°57' E 023°35'3 6.0
2017-Sep-16 05:01N 37°55' E 023°37'1 1.9
2017-Sep-16 04:31N 37°54' E 023°37'0 0.7
2017-Sep-16 04:01N 37°54' E 023°37'0 0.1
2017-Sep-16 03:31N 37°54' E 023°37'3 6.0
2017-Sep-16 03:00N 37°51' E 023°39'5 9.5
2017-Sep-16 02:30N 37°47' E 023°41'5 9.7
2017-Sep-16 02:00N 37°43' E 023°44'5 9.7
2017-Sep-16 01:30N 37°38' E 023°46'2310.2
2017-Sep-15 23:15N 37°17' E 023°57'910.6
2017-Sep-15 22:23N 37°07' E 023°58'410.6
2017-Sep-15 22:00N 37°04' E 023°59'510.6
2017-Sep-15 21:30N 36°59' E 024°01'  

Dump ship's entire track history